Altair — HP4625 — position and weather

sailwx.info

Track history (hours):
 
Tides and Currents Weather Stations Pressure Air Temp Water Temp Dewpoint Dewpoint Depression Visibility Wind Speed Wind Dir Waves Ship Positions

Altair

Last reported at 2017-Dec-31 16:30 UTC. Time now 2018-Jan-18 00:13 UTC.
Position N 28°41' W 013°33'.
Warning: this ship's position is 17 days out of date.

Length 91 m; draft 6.6 m.

Type: Cargo ship. MMSI: 352160000.

Date/timePositionNaut miles runAvg speedWind from/ knotsBaromVisibWave heightAir tempDewpointWater temp
2017-Dec-31 16:30N 28°41' W 013°33'611.3
2017-Dec-31 16:00N 28°45' W 013°30'611.4
2017-Dec-31 15:28N 28°51' W 013°26'611.3
2017-Dec-31 14:56N 28°56' W 013°23'510.9
2017-Dec-31 14:28N 28°60' W 013°20'3110.5
2017-Dec-31 11:32N 29°28' W 013°04'010.7
2017-Dec-31 11:30N 29°28' W 013°04'510.6
2017-Dec-31 11:00N 29°33' W 013°03'510.6
2017-Dec-31 10:30N 29°38' W 013°02'710.4
2017-Dec-31 09:50N 29°45' W 012°60'310.2
2017-Dec-31 09:30N 29°49' W 012°59'510.2
2017-Dec-31 09:00N 29°54' W 012°58'510.2
2017-Dec-31 08:30N 29°59' W 012°57'510.1
2017-Dec-31 08:00N 30°04' W 012°56'510.2
2017-Dec-31 07:30N 30°09' W 012°55'510.5
2017-Dec-31 07:00N 30°14' W 012°54'510.6
2017-Dec-31 06:30N 30°19' W 012°53'1910.6
2017-Dec-31 04:43N 30°38' W 012°50'210.5
2017-Dec-31 04:30N 30°40' W 012°49'4910.4
2017-Dec-30 23:45N 31°29' W 012°39'40510.2
2017-Dec-29 08:16N 38°05' W 010°58'8 9.6
2017-Dec-29 07:24N 38°13' W 010°55'4 9.5
2017-Dec-29 07:00N 38°16' W 010°53'5 9.7
2017-Dec-29 06:30N 38°21' W 010°51'5 9.4
2017-Dec-29 06:00N 38°25' W 010°49'5 9.7
2017-Dec-29 05:30N 38°30' W 010°47'13 9.8
2017-Dec-29 04:13N 38°42' W 010°42'16 9.6
2017-Dec-29 02:34N 38°57' W 010°36'1 9.6
2017-Dec-29 02:30N 38°58' W 010°35'  
2017-Dec-22 21:58N 28°44' W 015°06'710.8
2017-Dec-22 21:20N 28°37' W 015°09'311.0
2017-Dec-22 21:01N 28°34' W 015°11'611.0
2017-Dec-22 20:31N 28°29' W 015°13'611.1
2017-Dec-22 20:00N 28°24' W 015°16'611.2
2017-Dec-22 19:30N 28°19' W 015°18'611.1
2017-Dec-22 19:00N 28°13' W 015°20'510.5
2017-Dec-22 18:30N 28°09' W 015°23'1 2.3
2017-Dec-22 17:51N 28°08' W 015°24'0 0.0
2017-Dec-22 17:21N 28°08' W 015°24'0 0.0
2017-Dec-22 16:51N 28°08' W 015°24'0 0.0
2017-Dec-22 16:21N 28°08' W 015°24'0 0.0
2017-Dec-22 15:54N 28°08' W 015°24'0 0.0
2017-Dec-22 15:24N 28°08' W 015°24'0 0.0
2017-Dec-22 14:54N 28°08' W 015°24'0 0.0
2017-Dec-22 14:24N 28°08' W 015°24'0 0.0
2017-Dec-22 13:54N 28°08' W 015°24'0 0.0
2017-Dec-22 13:21N 28°08' W 015°24'0 0.0
2017-Dec-22 12:54N 28°08' W 015°24'0 0.0
2017-Dec-22 12:24N 28°08' W 015°24'0 0.0
2017-Dec-22 11:57N 28°08' W 015°24'0 0.0
2017-Dec-22 11:27N 28°08' W 015°24'0 0.0
2017-Dec-22 10:57N 28°08' W 015°24'0 0.0
2017-Dec-22 10:27N 28°08' W 015°24'0 0.0
2017-Dec-22 09:54N 28°08' W 015°24'0 0.0
2017-Dec-22 09:27N 28°08' W 015°24'0 0.0
2017-Dec-22 08:57N 28°08' W 015°24'0 0.0
2017-Dec-22 08:27N 28°08' W 015°24'0 0.0
2017-Dec-22 07:57N 28°08' W 015°24'0 0.0
2017-Dec-22 07:24N 28°08' W 015°24'0 0.0
2017-Dec-22 07:00N 28°08' W 015°24'0 0.0
2017-Dec-22 06:30N 28°08' W 015°24'0 0.0
2017-Dec-22 06:00N 28°08' W 015°24'0 0.0
2017-Dec-22 05:30N 28°08' W 015°24'0 0.0
2017-Dec-22 05:00N 28°08' W 015°24'0 0.0
2017-Dec-22 04:30N 28°08' W 015°24'0 0.0
2017-Dec-22 04:00N 28°08' W 015°24'0 0.0
2017-Dec-22 03:30N 28°08' W 015°24'0 0.0
2017-Dec-22 03:00N 28°08' W 015°24'0 0.0
2017-Dec-22 02:30N 28°08' W 015°24'0 0.0
2017-Dec-22 02:00N 28°08' W 015°24'0 0.0
2017-Dec-22 01:30N 28°08' W 015°24'0 0.0
2017-Dec-22 01:00N 28°08' W 015°24'0 0.0
2017-Dec-22 00:30N 28°08' W 015°24'0 0.0
2017-Dec-21 23:59N 28°08' W 015°24'0 0.0
2017-Dec-21 23:29N 28°08' W 015°24'0 0.0
2017-Dec-21 22:59N 28°08' W 015°24'0 0.0
2017-Dec-21 22:29N 28°08' W 015°24'0 0.0
2017-Dec-21 21:59N 28°08' W 015°24'0 0.0
2017-Dec-21 21:29N 28°08' W 015°24'0 0.1
2017-Dec-21 21:00N 28°08' W 015°25'2 3.9
2017-Dec-21 20:31N 28°07' W 015°23'4 7.1
2017-Dec-21 20:01N 28°04' W 015°21'511.0
2017-Dec-21 19:31N 27°59' W 015°19'510.4
2017-Dec-21 19:01N 27°53' W 015°19'5 9.9
2017-Dec-21 18:28N 27°48' W 015°20'  
Track history (hours):
 
Tides and Currents Weather Stations Pressure Air Temp Water Temp Dewpoint Dewpoint Depression Visibility Wind Speed Wind Dir Waves Ship Positions

Altair

Last reported at 2017-Dec-31 16:30 UTC. Time now 2018-Jan-18 00:13 UTC.
Position N 28°41' W 013°33'.
Warning: this ship's position is 17 days out of date.

Length 91 m; draft 6.6 m.

Type: Cargo ship. MMSI: 352160000.

Date/timePositionNaut miles runAvg speedWind from/ knotsBaromVisibWave heightAir tempDewpointWater temp
2017-Dec-31 16:30N 28°41' W 013°33'611.3
2017-Dec-31 16:00N 28°45' W 013°30'611.4
2017-Dec-31 15:28N 28°51' W 013°26'611.3
2017-Dec-31 14:56N 28°56' W 013°23'510.9
2017-Dec-31 14:28N 28°60' W 013°20'3110.5
2017-Dec-31 11:32N 29°28' W 013°04'010.7
2017-Dec-31 11:30N 29°28' W 013°04'510.6
2017-Dec-31 11:00N 29°33' W 013°03'510.6
2017-Dec-31 10:30N 29°38' W 013°02'710.4
2017-Dec-31 09:50N 29°45' W 012°60'310.2
2017-Dec-31 09:30N 29°49' W 012°59'510.2
2017-Dec-31 09:00N 29°54' W 012°58'510.2
2017-Dec-31 08:30N 29°59' W 012°57'510.1
2017-Dec-31 08:00N 30°04' W 012°56'510.2
2017-Dec-31 07:30N 30°09' W 012°55'510.5
2017-Dec-31 07:00N 30°14' W 012°54'510.6
2017-Dec-31 06:30N 30°19' W 012°53'1910.6
2017-Dec-31 04:43N 30°38' W 012°50'210.5
2017-Dec-31 04:30N 30°40' W 012°49'4910.4
2017-Dec-30 23:45N 31°29' W 012°39'40510.2
2017-Dec-29 08:16N 38°05' W 010°58'8 9.6
2017-Dec-29 07:24N 38°13' W 010°55'4 9.5
2017-Dec-29 07:00N 38°16' W 010°53'5 9.7
2017-Dec-29 06:30N 38°21' W 010°51'5 9.4
2017-Dec-29 06:00N 38°25' W 010°49'5 9.7
2017-Dec-29 05:30N 38°30' W 010°47'13 9.8
2017-Dec-29 04:13N 38°42' W 010°42'16 9.6
2017-Dec-29 02:34N 38°57' W 010°36'1 9.6
2017-Dec-29 02:30N 38°58' W 010°35'  
2017-Dec-22 21:58N 28°44' W 015°06'710.8
2017-Dec-22 21:20N 28°37' W 015°09'311.0
2017-Dec-22 21:01N 28°34' W 015°11'611.0
2017-Dec-22 20:31N 28°29' W 015°13'611.1
2017-Dec-22 20:00N 28°24' W 015°16'611.2
2017-Dec-22 19:30N 28°19' W 015°18'611.1
2017-Dec-22 19:00N 28°13' W 015°20'510.5
2017-Dec-22 18:30N 28°09' W 015°23'1 2.3
2017-Dec-22 17:51N 28°08' W 015°24'0 0.0
2017-Dec-22 17:21N 28°08' W 015°24'0 0.0
2017-Dec-22 16:51N 28°08' W 015°24'0 0.0
2017-Dec-22 16:21N 28°08' W 015°24'0 0.0
2017-Dec-22 15:54N 28°08' W 015°24'0 0.0
2017-Dec-22 15:24N 28°08' W 015°24'0 0.0
2017-Dec-22 14:54N 28°08' W 015°24'0 0.0
2017-Dec-22 14:24N 28°08' W 015°24'0 0.0
2017-Dec-22 13:54N 28°08' W 015°24'0 0.0
2017-Dec-22 13:21N 28°08' W 015°24'0 0.0
2017-Dec-22 12:54N 28°08' W 015°24'0 0.0
2017-Dec-22 12:24N 28°08' W 015°24'0 0.0
2017-Dec-22 11:57N 28°08' W 015°24'0 0.0
2017-Dec-22 11:27N 28°08' W 015°24'0 0.0
2017-Dec-22 10:57N 28°08' W 015°24'0 0.0
2017-Dec-22 10:27N 28°08' W 015°24'0 0.0
2017-Dec-22 09:54N 28°08' W 015°24'0 0.0
2017-Dec-22 09:27N 28°08' W 015°24'0 0.0
2017-Dec-22 08:57N 28°08' W 015°24'0 0.0
2017-Dec-22 08:27N 28°08' W 015°24'0 0.0
2017-Dec-22 07:57N 28°08' W 015°24'0 0.0
2017-Dec-22 07:24N 28°08' W 015°24'0 0.0
2017-Dec-22 07:00N 28°08' W 015°24'0 0.0
2017-Dec-22 06:30N 28°08' W 015°24'0 0.0
2017-Dec-22 06:00N 28°08' W 015°24'0 0.0
2017-Dec-22 05:30N 28°08' W 015°24'0 0.0
2017-Dec-22 05:00N 28°08' W 015°24'0 0.0
2017-Dec-22 04:30N 28°08' W 015°24'0 0.0
2017-Dec-22 04:00N 28°08' W 015°24'0 0.0
2017-Dec-22 03:30N 28°08' W 015°24'0 0.0
2017-Dec-22 03:00N 28°08' W 015°24'0 0.0
2017-Dec-22 02:30N 28°08' W 015°24'0 0.0
2017-Dec-22 02:00N 28°08' W 015°24'0 0.0
2017-Dec-22 01:30N 28°08' W 015°24'0 0.0
2017-Dec-22 01:00N 28°08' W 015°24'0 0.0
2017-Dec-22 00:30N 28°08' W 015°24'0 0.0
2017-Dec-21 23:59N 28°08' W 015°24'0 0.0
2017-Dec-21 23:29N 28°08' W 015°24'0 0.0
2017-Dec-21 22:59N 28°08' W 015°24'0 0.0
2017-Dec-21 22:29N 28°08' W 015°24'0 0.0
2017-Dec-21 21:59N 28°08' W 015°24'0 0.0
2017-Dec-21 21:29N 28°08' W 015°24'0 0.1
2017-Dec-21 21:00N 28°08' W 015°25'2 3.9
2017-Dec-21 20:31N 28°07' W 015°23'4 7.1
2017-Dec-21 20:01N 28°04' W 015°21'511.0
2017-Dec-21 19:31N 27°59' W 015°19'510.4
2017-Dec-21 19:01N 27°53' W 015°19'5 9.9
2017-Dec-21 18:28N 27°48' W 015°20'  

Dump ship's entire track history